Africa, Pennsylvania
Current Conditions -  °F | °C
As of 10:53 AM on Wednesday 22 Oct 2014 (Local Time) from KHGR Reporting Station
Overcast Overcast  
Wind Chill: 55°   Ceiling: 2800
Heat Index: 55°   Visibility: 10mi
Dew Point: 45°   Wind: 23mph
Humidity: 69%   Direction: 340°NNW
Pressure: 29.99"   Gusts: 30mph
Location:  39.8035°N, 77.9346°W
Report Text: KHGR 221453Z 34020G26KT 10SM SCT023 BKN028 OVC040 13/07 A2999 RMK AO2 PK WND 35026/1444 SLP167 T01280072 51011
Loading
Personal Weather Stations






























Interactive Weather Map
Tropical Storm Tracking
New forecast layout! Learn more

10-Day Weather Forecast

Advertisements
Track Severe Weather on mobile